Time;durP1;ratioP1;P1;durP2;ratioP2;P2;SDS_P1;SDS_P2;PMS_P1;PMS_P2;Temp;Humidity;BMP_temperature;BMP_pressure;BME280_temperature;BME280_humidity;BME280_pressure;Samples;Min_cycle;Max_cycle;Signal;HPM_P1;HPM_P2
2022/03/17 00:00:54;;;;;;;12.05;11.05;;;;;;;7.92;63.15;95514.22;5079704;28;20257;-68
2022/03/17 00:03:22;;;;;;;11.20;10.30;;;;;;;7.94;63.62;95509.19;5097712;28;20200;-68
2022/03/17 00:05:49;;;;;;;11.00;10.10;;;;;;;7.95;63.45;95504.50;5098253;28;20181;-68
2022/03/17 00:08:16;;;;;;;11.75;10.75;;;;;;;7.96;63.34;95506.13;5097748;28;20199;-68
2022/03/17 00:10:43;;;;;;;11.60;10.70;;;;;;;7.92;63.60;95505.16;5079964;28;20505;-68
2022/03/17 00:13:11;;;;;;;12.13;11.02;;;;;;;7.91;64.08;95503.53;5097275;28;20199;-68
2022/03/17 00:15:39;;;;;;;11.65;10.65;;;;;;;7.89;64.07;95516.78;5097663;28;20526;-68
2022/03/17 00:18:06;;;;;;;11.40;10.52;;;;;;;7.88;64.20;95515.16;5079709;28;20207;-68
2022/03/17 00:20:35;;;;;;;12.10;10.95;;;;;;;7.87;64.98;95505.31;5079868;28;20223;-68
2022/03/17 00:23:01;;;;;;;11.90;10.88;;;;;;;7.83;65.11;95507.91;5079376;28;20196;-68
2022/03/17 00:25:30;;;;;;;12.18;11.18;;;;;;;7.81;64.68;95501.16;5079767;28;20200;-67
2022/03/17 00:27:57;;;;;;;12.10;11.10;;;;;;;7.80;64.24;95500.31;5097217;28;20228;-68
2022/03/17 00:30:24;;;;;;;12.32;11.20;;;;;;;7.80;64.14;95507.75;5096940;28;20258;-68
2022/03/17 00:32:51;;;;;;;11.57;10.57;;;;;;;7.77;64.22;95511.97;5096966;28;20215;-68
2022/03/17 00:35:36;;;;;;;11.90;11.00;;;;;;;7.75;64.87;95511.47;5080193;28;20204;-68
2022/03/17 00:38:04;;;;;;;13.10;11.90;;;;;;;7.71;64.60;95507.75;5096921;28;20592;-68
2022/03/17 00:40:32;;;;;;;13.65;12.50;;;;;;;7.73;64.83;95505.47;5097411;28;20196;-68
2022/03/17 00:42:59;;;;;;;14.25;12.95;;;;;;;7.70;65.12;95506.97;5097065;28;20196;-68
2022/03/17 00:45:26;;;;;;;14.95;13.57;;;;;;;7.68;65.17;95511.16;5079377;28;20201;-68
2022/03/17 00:47:53;;;;;;;14.30;12.95;;;;;;;7.63;65.30;95509.38;5079008;28;20793;-68
2022/03/17 00:50:20;;;;;;;13.95;12.73;;;;;;;7.64;65.73;95518.41;5096718;28;20203;-67
2022/03/17 00:52:46;;;;;;;13.02;11.93;;;;;;;7.62;65.51;95524.22;5096624;28;20526;-67
2022/03/17 00:55:15;;;;;;;13.20;12.00;;;;;;;7.66;66.03;95527.13;5096535;28;20222;-68
2022/03/17 00:57:42;;;;;;;12.88;11.70;;;;;;;7.69;65.67;95523.75;5078748;28;20207;-68
2022/03/17 01:00:14;;;;;;;13.57;12.27;;;;;;;7.69;66.04;95531.97;5096918;28;20189;-68
2022/03/17 01:02:41;;;;;;;13.35;12.15;;;;;;;7.68;65.75;95539.41;5096797;28;20231;-68
2022/03/17 01:05:09;;;;;;;13.82;12.52;;;;;;;7.60;66.42;95539.41;5096771;28;20185;-68
2022/03/17 01:07:37;;;;;;;12.82;11.57;;;;;;;7.49;66.95;95544.41;5078578;28;20198;-68
2022/03/17 01:10:05;;;;;;;13.32;12.10;;;;;;;7.43;66.62;95546.50;5078405;28;20208;-68
2022/03/17 01:12:34;;;;;;;13.45;12.23;;;;;;;7.34;67.34;95544.88;5077854;28;20212;-68
2022/03/17 01:15:01;;;;;;;12.98;11.70;;;;;;;7.25;67.03;95544.84;5096539;28;20203;-68
2022/03/17 01:17:28;;;;;;;11.60;10.52;;;;;;;7.16;66.45;95558.56;5096041;28;20177;-68
2022/03/17 01:19:55;;;;;;;10.65;9.75;;;;;;;7.16;66.06;95555.81;5078619;28;20226;-68
2022/03/17 01:22:23;;;;;;;9.25;8.45;;;;;;;7.08;65.34;95558.53;5078937;28;20197;-68
2022/03/17 01:24:51;;;;;;;8.38;7.65;;;;;;;7.07;64.80;95557.72;5078748;28;20231;-68
2022/03/17 01:27:20;;;;;;;7.22;6.63;;;;;;;7.07;64.72;95562.41;5095888;28;20191;-68
2022/03/17 01:29:48;;;;;;;7.07;6.47;;;;;;;7.07;64.35;95551.44;5096333;28;20239;-68
2022/03/17 01:32:15;;;;;;;6.97;6.35;;;;;;;6.96;64.68;95561.88;5096252;28;20205;-68
2022/03/17 01:34:42;;;;;;;5.78;5.38;;;;;;;6.91;64.58;95562.03;5078267;28;20604;-68
2022/03/17 01:37:08;;;;;;;5.30;4.90;;;;;;;6.83;64.54;95563.63;5078185;28;20200;-68
2022/03/17 01:39:35;;;;;;;4.63;4.22;;;;;;;6.78;64.64;95565.69;5078248;28;20203;-68
2022/03/17 01:42:04;;;;;;;4.18;3.88;;;;;;;6.75;64.29;95564.38;5096007;28;20185;-68
2022/03/17 01:44:31;;;;;;;3.92;3.63;;;;;;;6.70;64.63;95570.00;5095915;28;20261;-68
2022/03/17 01:49:44;;;;;;;3.70;3.40;;;;;;;6.68;64.17;95575.81;5095901;28;20222;-68
2022/03/17 01:52:11;;;;;;;4.40;4.10;;;;;;;6.65;64.47;95572.91;5077877;28;20220;-67
2022/03/17 01:54:39;;;;;;;3.90;3.60;;;;;;;6.64;64.54;95571.28;5095751;28;20203;-68
2022/03/17 01:57:09;;;;;;;4.32;4.03;;;;;;;6.68;64.57;95570.34;5095549;28;20188;-68
2022/03/17 01:59:36;;;;;;;5.20;4.85;;;;;;;6.67;64.91;95576.13;5077628;28;20215;-68
2022/03/17 02:02:07;;;;;;;4.75;4.35;;;;;;;6.65;64.75;95578.38;5095393;28;20184;-68
2022/03/17 02:04:35;;;;;;;4.93;4.53;;;;;;;6.63;65.31;95570.47;5095686;28;20207;-68
2022/03/17 02:07:05;;;;;;;4.45;4.05;;;;;;;6.64;65.07;95569.34;5095276;28;20248;-68
2022/03/17 02:09:32;;;;;;;5.03;4.68;;;;;;;6.63;65.41;95561.44;5077661;28;20192;-68
2022/03/17 02:14:48;;;;;;;5.70;5.20;;;;;;;6.59;66.07;95574.16;5095277;28;20180;-68
2022/03/17 02:17:16;;;;;;;6.50;5.97;;;;;;;6.63;65.87;95575.94;5077746;28;20199;-68
2022/03/17 02:19:43;;;;;;;6.63;6.03;;;;;;;6.67;65.56;95590.63;5095510;28;20196;-68
2022/03/17 02:22:13;;;;;;;16.23;14.82;;;;;;;6.59;66.37;95591.41;5095412;28;20189;-68
2022/03/17 02:27:26;;;;;;;8.35;7.68;;;;;;;6.54;66.89;95598.97;5094965;28;20176;-68
2022/03/17 02:29:53;;;;;;;8.57;7.88;;;;;;;6.50;66.94;95593.31;5077046;28;20232;-68
2022/03/17 02:32:20;;;;;;;7.90;7.30;;;;;;;6.57;66.92;95581.88;5095258;28;20196;-68
2022/03/17 02:34:47;;;;;;;7.75;7.05;;;;;;;6.60;66.64;95595.75;5077972;28;20196;-68
2022/03/17 02:37:15;;;;;;;7.38;6.68;;;;;;;6.57;66.91;95601.06;5077585;28;20192;-68
2022/03/17 02:39:43;;;;;;;6.70;5.97;;;;;;;6.50;66.92;95605.06;5078175;28;20253;-68
2022/03/17 02:42:11;;;;;;;6.45;5.85;;;;;;;6.47;66.83;95610.38;5094945;28;20204;-68
2022/03/17 02:44:38;;;;;;;5.95;5.45;;;;;;;6.43;66.98;95609.38;5077653;28;20196;-69
2022/03/17 02:47:05;;;;;;;6.90;6.20;;;;;;;6.47;67.07;95611.19;5095317;28;20196;-68
2022/03/17 02:49:32;;;;;;;6.95;6.25;;;;;;;6.48;66.53;95604.56;5095156;28;20189;-69
2022/03/17 02:51:59;;;;;;;6.65;6.10;;;;;;;6.46;67.07;95616.97;5077640;28;20212;-69
2022/03/17 02:54:26;;;;;;;6.60;6.10;;;;;;;6.45;66.92;95607.13;5077193;28;20254;-68
2022/03/17 02:56:54;;;;;;;6.57;6.07;;;;;;;6.45;67.07;95615.34;5095181;28;20189;-69
2022/03/17 02:59:21;;;;;;;7.90;7.30;;;;;;;6.41;67.57;95609.69;5095046;28;20188;-68
2022/03/17 03:01:48;;;;;;;7.32;6.75;;;;;;;6.38;67.54;95618.53;5077254;28;20197;-68
2022/03/17 03:04:16;;;;;;;7.63;7.03;;;;;;;6.33;67.96;95615.13;5095318;28;20180;-68
2022/03/17 03:06:43;;;;;;;7.80;7.20;;;;;;;6.33;68.19;95623.34;5095273;28;20200;-68
2022/03/17 03:09:10;;;;;;;7.32;6.72;;;;;;;6.35;68.00;95618.34;5077099;28;20194;-68
2022/03/17 03:11:37;;;;;;;6.95;6.45;;;;;;;6.34;68.39;95623.00;5094828;28;20192;-68
2022/03/17 03:14:07;;;;;;;5.97;5.57;;;;;;;6.36;67.56;95625.47;5095122;28;20196;-68
2022/03/17 03:16:35;;;;;;;5.55;5.15;;;;;;;6.38;67.17;95629.47;5077291;28;20199;-68
2022/03/17 03:19:02;;;;;;;5.80;5.30;;;;;;;6.42;66.91;95627.72;5076890;28;20196;-68
2022/03/17 03:21:29;;;;;;;5.40;5.00;;;;;;;6.44;66.50;95624.69;5077182;28;20209;-67
2022/03/17 03:23:55;;;;;;;5.53;5.13;;;;;;;6.47;66.61;95632.28;5094800;28;20188;-67
2022/03/17 03:26:22;;;;;;;5.97;5.57;;;;;;;6.49;66.76;95625.38;5094985;28;20185;-67
2022/03/17 03:28:49;;;;;;;5.85;5.35;;;;;;;6.49;66.05;95627.28;5094190;28;20232;-67
2022/03/17 03:31:17;;;;;;;6.40;5.90;;;;;;;6.49;66.65;95627.28;5094408;28;20185;-68
2022/03/17 03:33:44;;;;;;;6.85;6.35;;;;;;;6.50;66.53;95620.72;5077502;28;20216;-68
2022/03/17 03:38:55;;;;;;;5.25;4.85;;;;;;;6.15;65.18;95627.88;5080391;28;20204;-68
2022/03/17 03:41:22;;;;;;;5.80;5.40;;;;;;;6.10;65.37;95637.03;5098302;28;20188;-68
2022/03/17 03:43:48;;;;;;;6.07;5.57;;;;;;;6.23;65.27;95641.63;5098262;28;20206;-67
2022/03/17 03:46:16;;;;;;;7.03;6.43;;;;;;;6.13;65.02;95639.13;5098461;28;20184;-67
2022/03/17 03:48:43;;;;;;;6.90;6.40;;;;;;;6.05;64.94;95639.06;5080587;28;20201;-68
2022/03/17 03:51:10;;;;;;;6.47;5.93;;;;;;;5.98;65.13;95639.50;5098202;28;20198;-67
2022/03/17 03:56:21;;;;;;;7.50;6.90;;;;;;;5.49;65.77;95649.34;5097864;28;20173;-67
2022/03/17 03:58:48;;;;;;;6.97;6.47;;;;;;;5.45;65.95;95660.09;5098018;28;20180;-68
2022/03/17 04:01:14;;;;;;;8.82;8.13;;;;;;;5.45;66.20;95657.34;5098041;28;20177;-67
2022/03/17 04:03:44;;;;;;;9.40;8.60;;;;;;;5.34;66.46;95655.94;5097600;28;20187;-68
2022/03/17 04:06:11;;;;;;;8.85;8.15;;;;;;;5.36;66.61;95670.09;5098138;28;20222;-68
2022/03/17 04:08:38;;;;;;;9.30;8.60;;;;;;;5.23;66.87;95666.28;5079040;28;20791;-68
2022/03/17 04:11:05;;;;;;;9.13;8.43;;;;;;;5.14;66.95;95672.75;5080155;28;20196;-66
2022/03/17 04:13:32;;;;;;;9.15;8.45;;;;;;;5.21;67.13;95673.97;5097582;28;20204;-70
2022/03/17 04:15:58;;;;;;;8.82;8.13;;;;;;;5.36;66.79;95685.72;5080331;28;20196;-70
2022/03/17 04:18:25;;;;;;;9.55;8.80;;;;;;;5.36;66.95;95691.19;5079506;28;20196;-71
2022/03/17 04:20:53;;;;;;;8.57;7.88;;;;;;;5.32;66.92;95691.78;5097542;28;20207;-70
2022/03/17 04:23:20;;;;;;;9.27;8.48;;;;;;;5.39;66.95;95699.59;5079648;28;20640;-70
2022/03/17 04:25:47;;;;;;;8.60;7.90;;;;;;;5.43;66.65;95697.88;5079743;28;20208;-70
2022/03/17 04:28:14;;;;;;;9.48;8.77;;;;;;;5.32;66.94;95701.94;5076418;28;20232;-71
2022/03/17 04:30:41;;;;;;;9.60;8.90;;;;;;;5.03;67.81;95713.94;5077305;28;20195;-68
2022/03/17 04:33:07;;;;;;;9.40;8.70;;;;;;;5.06;67.87;95715.28;5076640;28;20217;-68
2022/03/17 04:35:34;;;;;;;9.52;8.82;;;;;;;5.16;67.96;95723.31;5076769;28;20215;-68
2022/03/17 04:38:02;;;;;;;9.85;9.15;;;;;;;5.21;67.56;95715.00;5076996;28;20185;-68
2022/03/17 04:40:29;;;;;;;9.98;9.27;;;;;;;5.19;67.44;95714.50;5076067;28;20200;-68
2022/03/17 04:42:56;;;;;;;9.88;9.18;;;;;;;5.25;67.44;95724.19;5075754;28;20199;-68
2022/03/17 04:45:23;;;;;;;9.60;8.90;;;;;;;5.21;67.96;95720.47;5075842;28;20207;-68
2022/03/17 04:47:49;;;;;;;9.70;9.00;;;;;;;5.26;67.69;95725.00;5076450;28;20207;-72
2022/03/17 04:50:16;;;;;;;8.90;8.20;;;;;;;5.24;67.88;95725.31;5076293;28;20205;-67
2022/03/17 04:55:28;;;;;;;9.43;8.73;;;;;;;5.35;67.57;95733.34;5075840;28;20197;-68
2022/03/17 04:57:55;;;;;;;9.70;8.90;;;;;;;5.37;67.28;95734.63;5075713;28;20205;-68
2022/03/17 05:00:22;;;;;;;9.85;9.15;;;;;;;5.37;67.32;95731.91;5076835;28;20181;-68
2022/03/17 05:02:49;;;;;;;9.57;8.85;;;;;;;5.33;67.51;95750.03;5075623;28;20208;-68
2022/03/17 05:05:16;;;;;;;9.90;9.20;;;;;;;5.28;67.20;95758.34;5076398;28;20212;-68
2022/03/17 05:07:42;;;;;;;9.10;8.40;;;;;;;5.32;67.24;95748.44;5075501;28;20314;-68
2022/03/17 05:10:10;;;;;;;8.60;8.00;;;;;;;5.35;66.82;95752.50;5075136;28;20201;-68
2022/03/17 05:12:39;;;;;;;8.98;8.27;;;;;;;5.34;67.08;95764.53;5075516;28;20248;-68
2022/03/17 05:15:06;;;;;;;9.40;8.70;;;;;;;5.29;67.12;95758.03;5075372;28;20266;-68
2022/03/17 05:17:33;;;;;;;9.63;8.93;;;;;;;5.29;67.40;95765.44;5076062;28;20219;-68
2022/03/17 05:20:00;;;;;;;9.95;9.25;;;;;;;5.28;67.16;95769.28;5075179;28;20193;-68
2022/03/17 05:22:28;;;;;;;9.05;8.45;;;;;;;5.25;67.07;95770.69;5075094;28;20611;-68
2022/03/17 05:24:55;;;;;;;9.40;8.70;;;;;;;5.28;67.36;95781.03;5075691;28;20636;-68
2022/03/17 05:27:22;;;;;;;8.65;8.05;;;;;;;5.31;66.75;95774.97;5075658;28;20506;-68
2022/03/17 05:29:50;;;;;;;9.45;8.68;;;;;;;5.26;66.83;95768.78;5074543;28;20251;-68
2022/03/17 05:32:17;;;;;;;9.63;8.82;;;;;;;5.23;67.31;95781.16;5075864;28;20230;-69
2022/03/17 05:34:44;;;;;;;9.20;8.50;;;;;;;5.21;67.48;95777.88;5075805;28;20548;-68
2022/03/17 05:37:11;;;;;;;8.95;8.25;;;;;;;5.16;67.50;95780.72;5074837;28;20203;-68
2022/03/17 05:39:38;;;;;;;8.48;7.78;;;;;;;5.13;67.40;95786.00;5075547;28;20609;-68
2022/03/17 05:42:06;;;;;;;8.60;7.90;;;;;;;5.13;67.57;95788.72;5075711;28;20187;-68
2022/03/17 05:44:33;;;;;;;7.70;6.97;;;;;;;5.17;67.60;95798.75;5075349;28;20211;-68
2022/03/17 05:47:01;;;;;;;8.07;7.47;;;;;;;5.18;66.76;95810.50;5075645;28;20189;-68
2022/03/17 05:49:28;;;;;;;7.38;6.78;;;;;;;5.15;66.87;95802.88;5074654;28;20666;-68
2022/03/17 05:51:55;;;;;;;7.97;7.38;;;;;;;5.16;66.71;95818.22;5075982;28;20195;-68
2022/03/17 05:54:21;;;;;;;7.60;7.00;;;;;;;5.02;67.24;95824.44;5075286;28;20201;-68
2022/03/17 05:56:48;;;;;;;7.18;6.57;;;;;;;5.07;66.40;95827.06;5075339;28;20181;-68
2022/03/17 05:59:15;;;;;;;7.60;6.93;;;;;;;5.10;66.26;95824.88;5074235;28;20193;-68
2022/03/17 06:01:42;;;;;;;8.13;7.43;;;;;;;5.05;66.85;95828.50;5075109;28;20196;-68
2022/03/17 06:04:10;;;;;;;7.57;6.97;;;;;;;5.03;67.26;95826.06;5074613;28;20238;-68
2022/03/17 06:06:37;;;;;;;8.65;7.82;;;;;;;5.04;67.49;95822.19;5075081;28;20204;-69
2022/03/17 06:09:04;;;;;;;8.98;8.18;;;;;;;5.07;67.04;95826.28;5075466;28;20219;-68
2022/03/17 06:11:30;;;;;;;8.57;7.82;;;;;;;4.99;66.99;95833.22;5074392;28;20284;-68
2022/03/17 06:13:59;;;;;;;8.25;7.55;;;;;;;4.94;67.79;95827.03;5074947;28;20203;-68
2022/03/17 06:16:26;;;;;;;6.93;6.28;;;;;;;4.95;68.18;95823.22;5074077;28;20229;-68
2022/03/17 06:18:53;;;;;;;6.72;6.18;;;;;;;4.94;67.61;95830.59;5074577;28;20204;-68
2022/03/17 06:21:21;;;;;;;5.97;5.57;;;;;;;4.92;67.58;95838.28;5074972;28;20605;-68
2022/03/17 06:23:48;;;;;;;6.53;6.03;;;;;;;4.85;67.60;95840.56;5074910;28;20582;-68
2022/03/17 06:26:15;;;;;;;7.00;6.47;;;;;;;4.83;68.32;95843.63;5073990;28;20197;-69
2022/03/17 06:28:41;;;;;;;6.32;5.82;;;;;;;4.87;68.11;95840.28;5084665;28;20232;-68
2022/03/17 06:31:08;;;;;;;6.38;5.88;;;;;;;4.85;68.14;95845.22;5077566;28;20192;-68
2022/03/17 06:33:35;;;;;;;6.07;5.57;;;;;;;4.78;68.31;95856.53;5077456;28;20212;-68
2022/03/17 06:36:02;;;;;;;6.10;5.60;;;;;;;4.66;68.65;95857.00;5095220;28;20200;-68
2022/03/17 06:38:30;;;;;;;6.57;5.97;;;;;;;4.61;69.13;95869.91;5095230;28;20185;-68
2022/03/17 06:40:57;;;;;;;6.57;6.07;;;;;;;4.59;69.20;95870.22;5095342;28;20195;-68
2022/03/17 06:43:24;;;;;;;6.68;6.18;;;;;;;4.56;69.12;95870.78;5095054;28;20180;-68
2022/03/17 06:45:51;;;;;;;7.00;6.50;;;;;;;4.57;69.63;95875.16;5077828;28;20208;-68
2022/03/17 06:48:17;;;;;;;9.68;8.68;;;;;;;4.59;69.75;95876.47;5095581;28;20202;-68
2022/03/17 06:50:44;;;;;;;11.98;10.90;;;;;;;4.58;69.72;95874.06;5077601;28;20200;-68
2022/03/17 06:53:11;;;;;;;9.32;8.63;;;;;;;4.59;69.68;95881.13;5077305;28;20217;-68
2022/03/17 06:55:39;;;;;;;7.10;6.60;;;;;;;4.56;69.79;95882.53;5094983;28;20204;-68
2022/03/17 06:58:06;;;;;;;7.03;6.53;;;;;;;4.58;69.73;95885.78;5095034;28;20200;-68
2022/03/17 07:00:33;;;;;;;7.28;6.68;;;;;;;4.57;69.97;95884.19;5095096;28;20196;-68
2022/03/17 07:02:59;;;;;;;8.02;7.43;;;;;;;4.54;69.84;95887.50;5077480;28;20195;-68
2022/03/17 07:05:26;;;;;;;8.45;7.85;;;;;;;4.49;69.81;95892.19;5094636;28;20185;-68
2022/03/17 07:07:53;;;;;;;8.43;7.68;;;;;;;4.45;70.41;95891.97;5094925;28;20192;-68
2022/03/17 07:10:20;;;;;;;7.78;7.05;;;;;;;4.45;71.23;95894.72;5095126;28;20193;-68
2022/03/17 07:12:48;;;;;;;7.93;7.13;;;;;;;4.46;70.92;95893.59;5080867;28;20200;-68
2022/03/17 07:15:15;;;;;;;7.43;6.82;;;;;;;4.54;70.27;95894.88;5081053;28;20197;-68
2022/03/17 07:17:42;;;;;;;7.85;7.15;;;;;;;4.65;70.38;95903.72;5080664;28;20200;-68
2022/03/17 07:20:10;;;;;;;9.40;8.30;;;;;;;4.65;69.90;95906.47;5098954;28;20196;-68
2022/03/17 07:22:39;;;;;;;8.30;7.60;;;;;;;4.64;70.17;95904.84;5080810;28;20204;-68
2022/03/17 07:25:07;;;;;;;8.45;7.68;;;;;;;4.63;70.20;95903.22;5098707;28;20556;-68
2022/03/17 07:27:40;;;;;;;8.68;7.97;;;;;;;4.58;70.07;95913.13;5080486;28;20192;-68
2022/03/17 07:30:10;;;;;;;7.80;7.10;;;;;;;4.57;70.03;95916.13;5080396;28;20628;-68
2022/03/17 07:32:36;;;;;;;8.95;8.15;;;;;;;4.59;69.87;95913.94;5098483;28;20207;-68
2022/03/17 07:35:03;;;;;;;8.63;7.93;;;;;;;4.53;70.38;95926.03;5080497;28;20226;-68
2022/03/17 07:37:30;;;;;;;7.53;6.88;;;;;;;4.47;70.09;95917.09;5098394;28;20265;-68
2022/03/17 07:39:57;;;;;;;8.32;7.65;;;;;;;4.47;70.41;95924.47;5080212;28;20199;-68
2022/03/17 07:42:24;;;;;;;10.07;9.25;;;;;;;4.47;70.40;95924.47;5098354;28;20195;-68
2022/03/17 07:44:51;;;;;;;9.93;9.13;;;;;;;4.52;70.58;95924.41;5098492;28;20191;-68
2022/03/17 07:47:19;;;;;;;8.45;7.75;;;;;;;4.55;70.30;95926.56;5080313;28;20200;-68
2022/03/17 07:49:46;;;;;;;9.82;8.95;;;;;;;4.52;70.59;95927.94;5098500;28;20176;-68
2022/03/17 07:52:13;;;;;;;8.07;7.38;;;;;;;4.58;70.94;95925.97;5080453;28;20291;-68
2022/03/17 07:54:40;;;;;;;9.20;8.40;;;;;;;4.59;70.05;95920.19;5098094;28;20342;-68
2022/03/17 07:57:07;;;;;;;9.38;8.57;;;;;;;4.54;70.68;95928.47;5097704;28;20177;-68
2022/03/17 07:59:34;;;;;;;10.10;9.30;;;;;;;4.55;70.64;95929.28;5080259;28;20196;-68
2022/03/17 08:02:01;;;;;;;10.68;9.77;;;;;;;4.57;70.71;95924.31;5097699;28;20192;-68
2022/03/17 08:04:29;;;;;;;10.30;9.50;;;;;;;4.43;70.13;95920.69;5097589;28;20176;-68
2022/03/17 08:06:57;;;;;;;11.25;10.35;;;;;;;4.46;71.04;95925.56;5097931;28;20258;-68
2022/03/17 08:09:24;;;;;;;11.65;10.75;;;;;;;4.32;71.11;95920.84;5097747;28;20180;-68
2022/03/17 08:11:52;;;;;;;11.77;10.88;;;;;;;4.36;71.24;95926.53;5097922;28;20185;-68
2022/03/17 08:14:19;;;;;;;11.57;10.57;;;;;;;4.50;71.46;95926.59;5080023;28;20220;-68
2022/03/17 08:16:46;;;;;;;11.50;10.63;;;;;;;4.64;71.21;95924.78;5097662;28;20192;-68
2022/03/17 08:19:13;;;;;;;11.25;10.35;;;;;;;4.69;70.65;95926.66;5097567;28;20181;-68
2022/03/17 08:21:41;;;;;;;11.63;10.63;;;;;;;4.75;70.56;95922.72;5097252;28;20188;-68
2022/03/17 08:24:08;;;;;;;12.30;11.15;;;;;;;4.75;71.00;95926.25;5079430;28;20202;-68
2022/03/17 08:26:37;;;;;;;12.32;11.32;;;;;;;4.78;70.48;95925.66;5097500;28;20192;-68
2022/03/17 08:29:04;;;;;;;13.35;12.20;;;;;;;4.81;69.85;95936.03;5097013;28;20235;-68
2022/03/17 08:31:31;;;;;;;12.65;11.65;;;;;;;4.83;69.55;95927.53;5079468;28;20298;-68
2022/03/17 08:33:58;;;;;;;12.55;11.55;;;;;;;4.89;70.40;95937.28;5079758;28;20204;-68
2022/03/17 08:36:46;;;;;;;12.18;11.18;;;;;;;4.93;70.20;95937.50;5097471;28;20177;-68
2022/03/17 08:39:13;;;;;;;12.25;11.25;;;;;;;5.01;70.30;95934.09;5097158;28;20259;-68
2022/03/17 08:41:40;;;;;;;11.55;10.52;;;;;;;5.05;69.34;95933.22;5096945;28;20191;-68
2022/03/17 08:44:07;;;;;;;11.52;10.63;;;;;;;5.04;68.94;95936.22;5079429;28;20196;-68
2022/03/17 08:49:22;;;;;;;12.25;11.18;;;;;;;5.10;69.08;95931.50;5096726;28;20181;-68
2022/03/17 08:51:52;;;;;;;11.20;10.30;;;;;;;5.14;68.80;95927.88;5079453;28;20205;-68
2022/03/17 08:54:20;;;;;;;11.38;10.48;;;;;;;5.18;69.09;95933.56;5079108;28;20208;-68
2022/03/17 08:56:47;;;;;;;11.65;10.73;;;;;;;5.12;68.41;95932.00;5097041;28;20231;-68
2022/03/17 08:59:13;;;;;;;10.98;10.07;;;;;;;5.14;68.15;95938.00;5078997;28;20510;-68
2022/03/17 09:01:40;;;;;;;11.02;10.23;;;;;;;5.17;67.87;95943.69;5078966;28;20196;-68
2022/03/17 09:04:07;;;;;;;12.13;11.13;;;;;;;5.18;68.00;95939.03;5096827;28;20191;-68
2022/03/17 09:06:36;;;;;;;13.38;12.38;;;;;;;5.09;67.75;95949.84;5079324;28;20196;-68
2022/03/17 09:09:05;;;;;;;12.88;11.88;;;;;;;4.96;68.28;95948.66;5078812;28;20620;-68
2022/03/17 09:11:34;;;;;;;12.63;11.63;;;;;;;4.95;68.55;95959.91;5078748;28;20200;-68
2022/03/17 09:14:01;;;;;;;12.68;11.60;;;;;;;5.01;69.19;95961.44;5096722;28;20205;-68
2022/03/17 09:16:28;;;;;;;11.35;10.55;;;;;;;4.96;68.74;95965.06;5096417;28;20177;-68
2022/03/17 09:18:55;;;;;;;12.88;11.98;;;;;;;4.92;69.02;95966.75;5078741;28;20207;-68
2022/03/17 09:21:22;;;;;;;11.88;10.95;;;;;;;4.87;68.95;95963.28;5096331;28;20250;-68
2022/03/17 09:23:49;;;;;;;10.77;9.98;;;;;;;4.78;69.16;95968.59;5078974;28;20195;-68
2022/03/17 09:26:17;;;;;;;11.75;10.85;;;;;;;4.72;70.10;95976.06;5078964;28;20193;-68
2022/03/17 09:28:44;;;;;;;11.15;10.32;;;;;;;4.80;70.19;95983.59;5078258;28;20232;-68
2022/03/17 09:31:11;;;;;;;11.77;10.80;;;;;;;4.82;70.21;95988.75;5078380;28;20228;-68
2022/03/17 09:33:38;;;;;;;12.18;11.27;;;;;;;4.93;70.13;95992.16;5095424;28;20180;-68
2022/03/17 09:36:05;;;;;;;10.43;9.63;;;;;;;4.99;69.62;95988.25;5078487;28;20206;-68
2022/03/17 09:38:32;;;;;;;8.48;7.88;;;;;;;5.01;68.80;95991.50;5095799;28;20188;-68
2022/03/17 09:40:59;;;;;;;10.95;10.05;;;;;;;5.03;69.02;95990.09;5078173;28;20203;-69
2022/03/17 09:43:31;;;;;;;11.73;10.73;;;;;;;5.09;68.50;95990.06;5078139;28;20192;-68
2022/03/17 09:45:59;;;;;;;15.55;14.18;;;;;;;5.12;69.30;95994.91;5095971;28;20180;-68
2022/03/17 09:48:27;;;;;;;11.32;10.45;;;;;;;5.15;69.50;95992.41;5078141;28;20245;-68
2022/03/17 09:50:58;;;;;;;11.10;10.27;;;;;;;5.16;68.88;95999.50;5077999;28;20201;-68
2022/03/17 09:53:25;;;;;;;12.13;11.20;;;;;;;5.14;69.45;96000.91;5077916;28;20207;-68
2022/03/17 09:55:52;;;;;;;11.65;10.65;;;;;;;5.07;67.98;95995.81;5095783;28;20208;-68
2022/03/17 09:58:19;;;;;;;16.42;15.13;;;;;;;5.19;68.15;95995.34;5095896;28;20199;-68
2022/03/17 10:00:52;;;;;;;13.13;12.13;;;;;;;5.28;67.80;95996.31;5095938;28;20325;-68
2022/03/17 10:03:21;;;;;;;10.10;9.30;;;;;;;5.38;68.02;95998.09;5095749;28;20192;-68
2022/03/17 10:05:49;;;;;;;12.13;11.13;;;;;;;5.36;67.88;95981.97;5078093;28;20195;-68
2022/03/17 10:08:16;;;;;;;10.73;9.73;;;;;;;5.42;67.86;95997.19;5095898;28;20184;-68
2022/03/17 10:10:44;;;;;;;10.73;9.82;;;;;;;5.46;67.00;96006.44;5095303;28;20194;-68
2022/03/17 10:13:13;;;;;;;11.18;10.18;;;;;;;5.47;67.69;95999.03;5077487;28;20193;-68
2022/03/17 10:15:40;;;;;;;13.48;12.27;;;;;;;5.46;67.26;96006.44;5095817;28;20201;-68
2022/03/17 10:18:23;;;;;;;14.95;13.55;;;;;;;5.47;65.54;96008.06;5095742;28;20181;-68
2022/03/17 10:21:05;;;;;;;11.88;10.88;;;;;;;5.44;64.58;96005.91;5077749;28;20196;-68
2022/03/17 10:23:32;;;;;;;19.23;17.38;;;;;;;5.40;64.65;95999.41;5095399;28;20220;-68
2022/03/17 10:25:59;;;;;;;23.08;20.95;;;;;;;5.36;65.42;96001.13;5077747;28;20539;-68
2022/03/17 10:28:26;;;;;;;26.63;24.27;;;;;;;5.42;65.64;96005.41;5094968;28;20235;-68
2022/03/17 10:31:03;;;;;;;18.35;16.75;;;;;;;5.41;64.56;96008.44;5095369;28;20253;-68
2022/03/17 10:33:31;;;;;;;14.20;13.00;;;;;;;5.40;63.91;96004.88;5095462;28;20172;-68
2022/03/17 10:36:14;;;;;;;9.95;9.05;;;;;;;5.31;63.26;96003.94;5095065;28;20636;-68
2022/03/17 10:38:43;;;;;;;8.93;8.18;;;;;;;5.29;64.12;96008.88;5078244;28;20200;-69
2022/03/17 10:41:12;;;;;;;9.93;9.10;;;;;;;5.26;64.49;95998.53;5078026;28;20200;-68
2022/03/17 10:43:41;;;;;;;9.73;8.95;;;;;;;5.25;64.47;95999.66;5095466;28;20215;-68
2022/03/17 10:46:11;;;;;;;10.63;9.60;;;;;;;5.29;64.48;96004.22;5098093;28;20194;-68
2022/03/17 10:51:35;;;;;;;13.13;11.93;;;;;;;5.37;64.43;96002.72;5073176;28;20575;-69
2022/03/17 10:54:04;;;;;;;12.00;10.90;;;;;;;5.43;63.96;96004.28;5072371;28;20208;-70
2022/03/17 10:56:31;;;;;;;9.43;8.63;;;;;;;5.44;63.29;96005.09;5071918;28;20204;-69
2022/03/17 10:58:59;;;;;;;10.07;9.27;;;;;;;5.47;63.48;95999.03;5072338;28;20598;-69
2022/03/17 11:01:36;;;;;;;10.15;9.20;;;;;;;5.44;63.10;96002.38;5071486;28;20201;-69
2022/03/17 11:04:04;;;;;;;15.65;14.25;;;;;;;5.39;63.48;95997.78;5072341;28;20193;-69
2022/03/17 11:06:31;;;;;;;16.88;15.40;;;;;;;5.44;63.89;95999.63;5071739;28;20294;-68
2022/03/17 11:09:00;;;;;;;12.15;11.15;;;;;;;5.40;63.57;95996.66;5071465;28;20201;-69
2022/03/17 11:11:27;;;;;;;13.88;12.77;;;;;;;5.36;64.12;96000.31;5071213;28;20266;-69
2022/03/17 11:13:56;;;;;;;20.35;18.85;;;;;;;5.40;64.15;95995.88;5072144;28;20193;-69
2022/03/17 11:16:24;;;;;;;20.05;18.60;;;;;;;5.23;64.03;95993.69;5072298;28;20203;-69
2022/03/17 11:18:51;;;;;;;31.48;29.00;;;;;;;5.16;64.61;95994.03;5071925;28;20628;-69
2022/03/17 11:21:19;;;;;;;26.65;24.55;;;;;;;5.10;65.32;95991.66;5071941;28;20209;-68
2022/03/17 11:23:55;;;;;;;17.50;16.20;;;;;;;5.15;64.65;95999.78;5071666;28;20198;-69
2022/03/17 11:26:34;;;;;;;13.20;12.10;;;;;;;5.23;64.71;95993.69;5071593;28;20189;-69
2022/03/17 11:29:05;;;;;;;24.88;22.98;;;;;;;5.32;65.19;95995.44;5071929;28;20186;-69
2022/03/17 11:31:51;;;;;;;18.52;16.92;;;;;;;5.38;64.27;95993.44;5071747;28;20266;-68
2022/03/17 11:34:39;;;;;;;9.82;9.02;;;;;;;5.25;63.70;95986.78;5071282;28;20299;-69
2022/03/17 11:37:27;;;;;;;8.45;7.75;;;;;;;5.32;63.41;95980.94;5071473;28;20193;-69
2022/03/17 11:39:56;;;;;;;12.98;11.88;;;;;;;5.38;63.00;95978.94;5070598;28;20622;-69
2022/03/17 11:42:36;;;;;;;16.25;14.85;;;;;;;5.37;63.11;95975.38;5070295;28;20247;-69
2022/03/17 11:45:09;;;;;;;17.98;16.27;;;;;;;5.48;63.32;95970.56;5070603;28;20204;-69
2022/03/17 11:47:37;;;;;;;10.88;9.98;;;;;;;5.53;64.52;95973.22;5071431;28;20186;-68
2022/03/17 11:50:26;;;;;;;10.75;9.88;;;;;;;5.61;65.15;95977.22;5070639;28;20259;-68
2022/03/17 11:52:53;;;;;;;16.05;14.65;;;;;;;5.60;65.86;95968.19;5069385;28;20213;-69
2022/03/17 11:55:37;;;;;;;13.90;12.77;;;;;;;5.62;66.20;95979.63;5070936;28;20244;-69
2022/03/17 11:58:25;;;;;;;12.50;11.50;;;;;;;5.61;66.43;95971.72;5071231;28;20186;-69
2022/03/17 12:00:53;;;;;;;12.23;11.23;;;;;;;5.59;66.08;95990.38;5068346;28;20197;-69